sensor_id;sensor_type;location;lat;lon;timestamp;P1;durP1;ratioP1;P2;durP2;ratioP2
81679;SDS011;74989;52.210;5.148;2023-12-22T00:01:53;15.57;;;2.63;;
81679;SDS011;74989;52.210;5.148;2023-12-22T00:04:20;13.38;;;4.18;;
81679;SDS011;74989;52.210;5.148;2023-12-22T00:06:47;9.07;;;2.53;;
81679;SDS011;74989;52.210;5.148;2023-12-22T00:09:15;8.60;;;2.00;;
81679;SDS011;74989;52.210;5.148;2023-12-22T00:11:42;7.83;;;2.00;;
81679;SDS011;74989;52.210;5.148;2023-12-22T00:14:08;4.55;;;1.60;;
81679;SDS011;74989;52.210;5.148;2023-12-22T00:16:36;4.13;;;1.50;;
81679;SDS011;74989;52.210;5.148;2023-12-22T00:19:03;8.40;;;1.77;;
81679;SDS011;74989;52.210;5.148;2023-12-22T00:21:30;12.15;;;1.90;;
81679;SDS011;74989;52.210;5.148;2023-12-22T00:23:57;10.37;;;1.83;;
81679;SDS011;74989;52.210;5.148;2023-12-22T00:26:25;7.55;;;1.58;;
81679;SDS011;74989;52.210;5.148;2023-12-22T00:28:52;7.75;;;1.65;;
81679;SDS011;74989;52.210;5.148;2023-12-22T00:31:18;6.50;;;2.22;;
81679;SDS011;74989;52.210;5.148;2023-12-22T00:33:45;10.88;;;1.65;;
81679;SDS011;74989;52.210;5.148;2023-12-22T00:36:12;13.43;;;2.53;;
81679;SDS011;74989;52.210;5.148;2023-12-22T00:38:39;10.50;;;2.65;;
81679;SDS011;74989;52.210;5.148;2023-12-22T00:41:04;10.85;;;2.10;;
81679;SDS011;74989;52.210;5.148;2023-12-22T00:43:32;11.50;;;2.63;;
81679;SDS011;74989;52.210;5.148;2023-12-22T00:45:59;16.08;;;3.00;;
81679;SDS011;74989;52.210;5.148;2023-12-22T00:48:26;11.90;;;2.17;;
81679;SDS011;74989;52.210;5.148;2023-12-22T00:50:52;11.45;;;2.55;;
81679;SDS011;74989;52.210;5.148;2023-12-22T00:53:19;12.90;;;2.42;;
81679;SDS011;74989;52.210;5.148;2023-12-22T00:55:46;11.67;;;2.73;;
81679;SDS011;74989;52.210;5.148;2023-12-22T00:58:12;12.18;;;2.30;;
81679;SDS011;74989;52.210;5.148;2023-12-22T01:00:40;9.65;;;2.25;;
81679;SDS011;74989;52.210;5.148;2023-12-22T01:03:07;13.35;;;3.28;;
81679;SDS011;74989;52.210;5.148;2023-12-22T01:05:35;11.50;;;2.92;;
81679;SDS011;74989;52.210;5.148;2023-12-22T01:08:02;21.07;;;3.33;;
81679;SDS011;74989;52.210;5.148;2023-12-22T01:10:29;18.00;;;3.17;;
81679;SDS011;74989;52.210;5.148;2023-12-22T01:12:56;12.52;;;2.63;;
81679;SDS011;74989;52.210;5.148;2023-12-22T01:15:23;13.48;;;2.28;;
81679;SDS011;74989;52.210;5.148;2023-12-22T01:17:51;17.40;;;2.70;;
81679;SDS011;74989;52.210;5.148;2023-12-22T01:20:18;10.97;;;3.37;;
81679;SDS011;74989;52.210;5.148;2023-12-22T01:22:44;10.20;;;3.63;;
81679;SDS011;74989;52.210;5.148;2023-12-22T01:25:11;15.75;;;3.40;;
81679;SDS011;74989;52.210;5.148;2023-12-22T01:27:38;22.45;;;3.97;;
81679;SDS011;74989;52.210;5.148;2023-12-22T01:30:05;19.30;;;4.25;;
81679;SDS011;74989;52.210;5.148;2023-12-22T01:32:33;10.47;;;3.80;;
81679;SDS011;74989;52.210;5.148;2023-12-22T01:35:03;18.50;;;3.15;;
81679;SDS011;74989;52.210;5.148;2023-12-22T01:37:34;20.90;;;3.97;;
81679;SDS011;74989;52.210;5.148;2023-12-22T01:40:01;26.90;;;3.97;;
81679;SDS011;74989;52.210;5.148;2023-12-22T01:42:27;16.13;;;3.67;;
81679;SDS011;74989;52.210;5.148;2023-12-22T01:44:54;24.83;;;4.60;;
81679;SDS011;74989;52.210;5.148;2023-12-22T01:47:21;20.38;;;3.85;;
81679;SDS011;74989;52.210;5.148;2023-12-22T01:49:47;17.73;;;3.72;;
81679;SDS011;74989;52.210;5.148;2023-12-22T01:52:16;23.30;;;4.13;;
81679;SDS011;74989;52.210;5.148;2023-12-22T01:54:43;20.80;;;4.07;;
81679;SDS011;74989;52.210;5.148;2023-12-22T01:57:11;16.60;;;3.77;;
81679;SDS011;74989;52.210;5.148;2023-12-22T01:59:42;30.17;;;3.58;;
81679;SDS011;74989;52.210;5.148;2023-12-22T02:02:10;27.20;;;3.92;;
81679;SDS011;74989;52.210;5.148;2023-12-22T02:04:36;23.33;;;4.35;;
81679;SDS011;74989;52.210;5.148;2023-12-22T02:07:03;29.40;;;5.25;;
81679;SDS011;74989;52.210;5.148;2023-12-22T02:09:34;25.73;;;4.80;;
81679;SDS011;74989;52.210;5.148;2023-12-22T02:12:02;21.25;;;4.15;;
81679;SDS011;74989;52.210;5.148;2023-12-22T02:14:29;21.73;;;2.97;;
81679;SDS011;74989;52.210;5.148;2023-12-22T02:16:59;25.63;;;4.65;;
81679;SDS011;74989;52.210;5.148;2023-12-22T02:19:36;26.65;;;3.55;;
81679;SDS011;74989;52.210;5.148;2023-12-22T02:22:08;24.63;;;4.00;;
81679;SDS011;74989;52.210;5.148;2023-12-22T02:24:38;20.27;;;4.43;;
81679;SDS011;74989;52.210;5.148;2023-12-22T02:27:06;24.30;;;3.80;;
81679;SDS011;74989;52.210;5.148;2023-12-22T02:29:41;33.05;;;5.07;;
81679;SDS011;74989;52.210;5.148;2023-12-22T02:32:14;23.23;;;4.88;;
81679;SDS011;74989;52.210;5.148;2023-12-22T02:34:47;28.83;;;5.60;;
81679;SDS011;74989;52.210;5.148;2023-12-22T02:37:16;25.17;;;4.65;;
81679;SDS011;74989;52.210;5.148;2023-12-22T02:39:46;27.30;;;4.55;;
81679;SDS011;74989;52.210;5.148;2023-12-22T02:42:13;28.73;;;5.80;;
81679;SDS011;74989;52.210;5.148;2023-12-22T02:44:40;27.08;;;5.03;;
81679;SDS011;74989;52.210;5.148;2023-12-22T02:47:06;30.63;;;4.57;;
81679;SDS011;74989;52.210;5.148;2023-12-22T02:49:33;27.05;;;5.93;;
81679;SDS011;74989;52.210;5.148;2023-12-22T02:52:00;23.45;;;4.05;;
81679;SDS011;74989;52.210;5.148;2023-12-22T02:54:26;30.83;;;4.50;;
81679;SDS011;74989;52.210;5.148;2023-12-22T02:56:56;23.50;;;4.57;;
81679;SDS011;74989;52.210;5.148;2023-12-22T02:59:24;26.53;;;4.83;;
81679;SDS011;74989;52.210;5.148;2023-12-22T03:01:52;36.55;;;4.70;;
81679;SDS011;74989;52.210;5.148;2023-12-22T03:04:19;23.38;;;4.05;;
81679;SDS011;74989;52.210;5.148;2023-12-22T03:06:45;17.85;;;3.80;;
81679;SDS011;74989;52.210;5.148;2023-12-22T03:09:12;27.17;;;5.75;;
81679;SDS011;74989;52.210;5.148;2023-12-22T03:11:39;28.03;;;6.40;;
81679;SDS011;74989;52.210;5.148;2023-12-22T03:14:07;28.88;;;4.85;;
81679;SDS011;74989;52.210;5.148;2023-12-22T03:16:33;25.30;;;4.78;;
81679;SDS011;74989;52.210;5.148;2023-12-22T03:19:00;23.52;;;4.55;;
81679;SDS011;74989;52.210;5.148;2023-12-22T03:21:27;26.50;;;4.32;;
81679;SDS011;74989;52.210;5.148;2023-12-22T03:23:53;25.30;;;5.20;;
81679;SDS011;74989;52.210;5.148;2023-12-22T03:26:20;29.75;;;4.55;;
81679;SDS011;74989;52.210;5.148;2023-12-22T03:28:46;26.27;;;4.95;;
81679;SDS011;74989;52.210;5.148;2023-12-22T03:31:14;27.77;;;4.07;;
81679;SDS011;74989;52.210;5.148;2023-12-22T03:33:41;28.08;;;4.82;;
81679;SDS011;74989;52.210;5.148;2023-12-22T03:36:08;25.13;;;4.83;;
81679;SDS011;74989;52.210;5.148;2023-12-22T03:38:34;30.83;;;5.50;;
81679;SDS011;74989;52.210;5.148;2023-12-22T03:41:01;25.02;;;3.63;;
81679;SDS011;74989;52.210;5.148;2023-12-22T03:43:27;15.30;;;2.97;;
81679;SDS011;74989;52.210;5.148;2023-12-22T03:45:55;23.87;;;3.30;;
81679;SDS011;74989;52.210;5.148;2023-12-22T03:48:23;15.20;;;2.80;;
81679;SDS011;74989;52.210;5.148;2023-12-22T03:50:49;13.27;;;3.35;;
81679;SDS011;74989;52.210;5.148;2023-12-22T03:53:16;14.43;;;2.67;;
81679;SDS011;74989;52.210;5.148;2023-12-22T03:55:43;15.25;;;3.00;;
81679;SDS011;74989;52.210;5.148;2023-12-22T03:58:09;15.03;;;2.73;;
81679;SDS011;74989;52.210;5.148;2023-12-22T04:00:36;13.77;;;2.70;;
81679;SDS011;74989;52.210;5.148;2023-12-22T04:03:03;12.45;;;2.88;;
81679;SDS011;74989;52.210;5.148;2023-12-22T04:05:31;18.67;;;3.20;;
81679;SDS011;74989;52.210;5.148;2023-12-22T04:07:58;18.85;;;3.10;;
81679;SDS011;74989;52.210;5.148;2023-12-22T04:10:24;16.17;;;3.20;;
81679;SDS011;74989;52.210;5.148;2023-12-22T04:12:51;20.42;;;3.33;;
81679;SDS011;74989;52.210;5.148;2023-12-22T04:15:18;20.80;;;4.40;;
81679;SDS011;74989;52.210;5.148;2023-12-22T04:17:44;22.90;;;3.75;;
81679;SDS011;74989;52.210;5.148;2023-12-22T04:20:11;23.90;;;3.85;;
81679;SDS011;74989;52.210;5.148;2023-12-22T04:22:40;25.77;;;3.10;;
81679;SDS011;74989;52.210;5.148;2023-12-22T04:25:06;21.00;;;3.35;;
81679;SDS011;74989;52.210;5.148;2023-12-22T04:27:34;25.77;;;4.13;;
81679;SDS011;74989;52.210;5.148;2023-12-22T04:30:00;16.55;;;3.78;;
81679;SDS011;74989;52.210;5.148;2023-12-22T04:32:27;32.80;;;4.82;;
81679;SDS011;74989;52.210;5.148;2023-12-22T04:34:54;20.60;;;3.73;;
81679;SDS011;74989;52.210;5.148;2023-12-22T04:37:20;28.23;;;4.90;;
81679;SDS011;74989;52.210;5.148;2023-12-22T04:39:48;39.53;;;4.72;;
81679;SDS011;74989;52.210;5.148;2023-12-22T04:42:15;27.00;;;4.22;;
81679;SDS011;74989;52.210;5.148;2023-12-22T04:44:42;34.30;;;4.97;;
81679;SDS011;74989;52.210;5.148;2023-12-22T04:47:08;27.53;;;4.90;;
81679;SDS011;74989;52.210;5.148;2023-12-22T04:49:35;24.45;;;4.47;;
81679;SDS011;74989;52.210;5.148;2023-12-22T04:52:01;29.05;;;3.67;;
81679;SDS011;74989;52.210;5.148;2023-12-22T04:54:28;27.40;;;4.50;;
81679;SDS011;74989;52.210;5.148;2023-12-22T04:56:56;26.77;;;4.25;;
81679;SDS011;74989;52.210;5.148;2023-12-22T04:59:23;33.10;;;4.47;;
81679;SDS011;74989;52.210;5.148;2023-12-22T05:01:50;29.30;;;4.93;;
81679;SDS011;74989;52.210;5.148;2023-12-22T05:04:16;26.98;;;4.78;;
81679;SDS011;74989;52.210;5.148;2023-12-22T05:06:43;25.58;;;4.22;;
81679;SDS011;74989;52.210;5.148;2023-12-22T05:09:10;24.20;;;4.15;;
81679;SDS011;74989;52.210;5.148;2023-12-22T05:11:37;25.33;;;3.67;;
81679;SDS011;74989;52.210;5.148;2023-12-22T05:14:05;27.90;;;3.67;;
81679;SDS011;74989;52.210;5.148;2023-12-22T05:16:32;24.02;;;4.00;;
81679;SDS011;74989;52.210;5.148;2023-12-22T05:18:58;22.00;;;3.47;;
81679;SDS011;74989;52.210;5.148;2023-12-22T05:21:25;20.13;;;4.18;;
81679;SDS011;74989;52.210;5.148;2023-12-22T05:23:52;25.67;;;4.23;;
81679;SDS011;74989;52.210;5.148;2023-12-22T05:26:19;17.33;;;3.17;;
81679;SDS011;74989;52.210;5.148;2023-12-22T05:28:47;21.95;;;3.78;;
81679;SDS011;74989;52.210;5.148;2023-12-22T05:31:16;21.63;;;3.85;;
81679;SDS011;74989;52.210;5.148;2023-12-22T05:33:42;17.05;;;2.95;;
81679;SDS011;74989;52.210;5.148;2023-12-22T05:36:09;14.80;;;2.80;;
81679;SDS011;74989;52.210;5.148;2023-12-22T05:38:37;15.77;;;3.22;;
81679;SDS011;74989;52.210;5.148;2023-12-22T05:41:03;14.00;;;3.63;;
81679;SDS011;74989;52.210;5.148;2023-12-22T05:43:30;14.18;;;2.85;;
81679;SDS011;74989;52.210;5.148;2023-12-22T05:45:57;18.60;;;3.05;;
81679;SDS011;74989;52.210;5.148;2023-12-22T05:48:25;15.70;;;3.33;;
81679;SDS011;74989;52.210;5.148;2023-12-22T05:50:51;25.88;;;3.97;;
81679;SDS011;74989;52.210;5.148;2023-12-22T05:53:18;15.52;;;3.33;;
81679;SDS011;74989;52.210;5.148;2023-12-22T05:55:45;16.88;;;3.38;;
81679;SDS011;74989;52.210;5.148;2023-12-22T05:58:11;19.15;;;3.97;;
81679;SDS011;74989;52.210;5.148;2023-12-22T06:00:38;17.30;;;3.37;;
81679;SDS011;74989;52.210;5.148;2023-12-22T06:03:05;13.98;;;3.45;;
81679;SDS011;74989;52.210;5.148;2023-12-22T06:05:33;26.63;;;4.68;;
81679;SDS011;74989;52.210;5.148;2023-12-22T06:07:59;19.38;;;3.83;;
81679;SDS011;74989;52.210;5.148;2023-12-22T06:10:26;20.30;;;3.45;;
81679;SDS011;74989;52.210;5.148;2023-12-22T06:12:53;21.53;;;3.53;;
81679;SDS011;74989;52.210;5.148;2023-12-22T06:15:19;20.38;;;3.33;;
81679;SDS011;74989;52.210;5.148;2023-12-22T06:17:46;21.42;;;3.90;;
81679;SDS011;74989;52.210;5.148;2023-12-22T06:20:13;26.00;;;4.78;;
81679;SDS011;74989;52.210;5.148;2023-12-22T06:22:41;24.45;;;3.70;;
81679;SDS011;74989;52.210;5.148;2023-12-22T06:25:07;22.37;;;3.30;;
81679;SDS011;74989;52.210;5.148;2023-12-22T06:27:35;22.60;;;3.25;;
81679;SDS011;74989;52.210;5.148;2023-12-22T06:30:02;23.92;;;3.78;;
81679;SDS011;74989;52.210;5.148;2023-12-22T06:32:29;20.40;;;3.42;;
81679;SDS011;74989;52.210;5.148;2023-12-22T06:34:56;22.13;;;4.40;;
81679;SDS011;74989;52.210;5.148;2023-12-22T06:37:24;29.37;;;5.37;;
81679;SDS011;74989;52.210;5.148;2023-12-22T06:39:52;31.02;;;4.93;;
81679;SDS011;74989;52.210;5.148;2023-12-22T06:42:19;26.05;;;4.28;;
81679;SDS011;74989;52.210;5.148;2023-12-22T06:44:46;26.80;;;4.97;;
81679;SDS011;74989;52.210;5.148;2023-12-22T06:47:13;25.25;;;4.38;;
81679;SDS011;74989;52.210;5.148;2023-12-22T06:49:39;22.63;;;4.27;;
81679;SDS011;74989;52.210;5.148;2023-12-22T06:52:06;27.38;;;4.90;;
81679;SDS011;74989;52.210;5.148;2023-12-22T06:54:34;25.63;;;4.25;;
81679;SDS011;74989;52.210;5.148;2023-12-22T06:57:01;20.50;;;4.50;;
81679;SDS011;74989;52.210;5.148;2023-12-22T06:59:28;30.58;;;5.32;;
81679;SDS011;74989;52.210;5.148;2023-12-22T07:01:55;30.90;;;5.13;;
81679;SDS011;74989;52.210;5.148;2023-12-22T07:07:29;34.33;;;5.97;;
81679;SDS011;74989;52.210;5.148;2023-12-22T07:09:56;32.90;;;5.07;;
81679;SDS011;74989;52.210;5.148;2023-12-22T07:12:24;29.17;;;5.47;;
81679;SDS011;74989;52.210;5.148;2023-12-22T07:14:51;36.17;;;6.00;;
81679;SDS011;74989;52.210;5.148;2023-12-22T07:17:18;27.13;;;5.22;;
81679;SDS011;74989;52.210;5.148;2023-12-22T07:19:44;29.42;;;5.57;;
81679;SDS011;74989;52.210;5.148;2023-12-22T07:22:11;30.85;;;4.82;;
81679;SDS011;74989;52.210;5.148;2023-12-22T07:24:37;40.47;;;6.20;;
81679;SDS011;74989;52.210;5.148;2023-12-22T07:27:04;35.97;;;5.13;;
81679;SDS011;74989;52.210;5.148;2023-12-22T07:29:32;29.40;;;5.72;;
81679;SDS011;74989;52.210;5.148;2023-12-22T07:31:58;34.90;;;5.65;;
81679;SDS011;74989;52.210;5.148;2023-12-22T07:34:25;26.20;;;5.32;;
81679;SDS011;74989;52.210;5.148;2023-12-22T07:36:52;30.02;;;4.60;;
81679;SDS011;74989;52.210;5.148;2023-12-22T07:39:19;29.07;;;4.97;;
81679;SDS011;74989;52.210;5.148;2023-12-22T07:41:47;28.40;;;5.60;;
81679;SDS011;74989;52.210;5.148;2023-12-22T07:44:14;34.63;;;5.93;;
81679;SDS011;74989;52.210;5.148;2023-12-22T07:46:42;41.65;;;6.75;;
81679;SDS011;74989;52.210;5.148;2023-12-22T07:49:08;37.97;;;6.20;;
81679;SDS011;74989;52.210;5.148;2023-12-22T07:51:35;28.73;;;5.13;;
81679;SDS011;74989;52.210;5.148;2023-12-22T07:54:02;29.48;;;6.18;;
81679;SDS011;74989;52.210;5.148;2023-12-22T07:56:29;41.30;;;6.00;;
81679;SDS011;74989;52.210;5.148;2023-12-22T07:58:55;34.05;;;6.38;;
81679;SDS011;74989;52.210;5.148;2023-12-22T08:01:22;39.63;;;5.90;;
81679;SDS011;74989;52.210;5.148;2023-12-22T08:03:50;29.70;;;5.37;;
81679;SDS011;74989;52.210;5.148;2023-12-22T08:06:17;37.92;;;5.70;;
81679;SDS011;74989;52.210;5.148;2023-12-22T08:08:43;34.97;;;5.43;;
81679;SDS011;74989;52.210;5.148;2023-12-22T08:11:10;27.58;;;4.90;;
81679;SDS011;74989;52.210;5.148;2023-12-22T08:13:37;32.25;;;5.40;;
81679;SDS011;74989;52.210;5.148;2023-12-22T08:16:03;29.40;;;5.27;;
81679;SDS011;74989;52.210;5.148;2023-12-22T08:18:30;19.35;;;4.03;;
81679;SDS011;74989;52.210;5.148;2023-12-22T08:20:58;21.00;;;3.75;;
81679;SDS011;74989;52.210;5.148;2023-12-22T08:23:25;26.63;;;4.70;;
81679;SDS011;74989;52.210;5.148;2023-12-22T08:25:51;19.90;;;4.05;;
81679;SDS011;74989;52.210;5.148;2023-12-22T08:28:18;21.00;;;3.87;;
81679;SDS011;74989;52.210;5.148;2023-12-22T08:30:45;19.30;;;3.53;;
81679;SDS011;74989;52.210;5.148;2023-12-22T08:33:11;14.90;;;3.10;;
81679;SDS011;74989;52.210;5.148;2023-12-22T08:35:39;23.45;;;4.60;;
81679;SDS011;74989;52.210;5.148;2023-12-22T08:38:07;17.50;;;3.72;;
81679;SDS011;74989;52.210;5.148;2023-12-22T08:40:34;18.27;;;4.80;;
81679;SDS011;74989;52.210;5.148;2023-12-22T08:43:00;26.90;;;4.70;;
81679;SDS011;74989;52.210;5.148;2023-12-22T08:45:28;24.02;;;4.85;;
81679;SDS011;74989;52.210;5.148;2023-12-22T08:47:55;24.02;;;4.07;;
81679;SDS011;74989;52.210;5.148;2023-12-22T08:50:22;24.42;;;4.57;;
81679;SDS011;74989;52.210;5.148;2023-12-22T08:52:48;24.00;;;4.20;;
81679;SDS011;74989;52.210;5.148;2023-12-22T08:55:16;21.40;;;3.78;;
81679;SDS011;74989;52.210;5.148;2023-12-22T08:57:43;26.73;;;4.63;;
81679;SDS011;74989;52.210;5.148;2023-12-22T09:00:10;22.17;;;5.03;;
81679;SDS011;74989;52.210;5.148;2023-12-22T09:02:38;18.05;;;3.33;;
81679;SDS011;74989;52.210;5.148;2023-12-22T09:05:05;18.17;;;3.97;;
81679;SDS011;74989;52.210;5.148;2023-12-22T09:07:32;18.63;;;4.53;;
81679;SDS011;74989;52.210;5.148;2023-12-22T09:09:59;12.32;;;2.92;;
81679;SDS011;74989;52.210;5.148;2023-12-22T09:12:27;7.40;;;1.40;;
81679;SDS011;74989;52.210;5.148;2023-12-22T09:14:53;3.22;;;1.35;;
81679;SDS011;74989;52.210;5.148;2023-12-22T09:17:20;2.67;;;0.80;;
81679;SDS011;74989;52.210;5.148;2023-12-22T09:19:46;2.58;;;0.98;;
81679;SDS011;74989;52.210;5.148;2023-12-22T09:22:13;5.88;;;2.13;;
81679;SDS011;74989;52.210;5.148;2023-12-22T09:24:40;5.35;;;1.50;;
81679;SDS011;74989;52.210;5.148;2023-12-22T09:27:06;4.03;;;1.20;;
81679;SDS011;74989;52.210;5.148;2023-12-22T09:29:36;6.43;;;1.70;;
81679;SDS011;74989;52.210;5.148;2023-12-22T09:32:02;7.25;;;1.58;;
81679;SDS011;74989;52.210;5.148;2023-12-22T09:34:30;9.23;;;2.35;;
81679;SDS011;74989;52.210;5.148;2023-12-22T09:36:56;12.48;;;2.42;;
81679;SDS011;74989;52.210;5.148;2023-12-22T09:39:23;11.90;;;2.83;;
81679;SDS011;74989;52.210;5.148;2023-12-22T09:41:50;11.73;;;2.90;;
81679;SDS011;74989;52.210;5.148;2023-12-22T09:44:17;15.27;;;2.67;;
81679;SDS011;74989;52.210;5.148;2023-12-22T09:46:47;11.07;;;2.95;;
81679;SDS011;74989;52.210;5.148;2023-12-22T09:49:15;11.63;;;2.58;;
81679;SDS011;74989;52.210;5.148;2023-12-22T09:51:44;15.20;;;3.35;;
81679;SDS011;74989;52.210;5.148;2023-12-22T09:54:11;17.07;;;2.93;;
81679;SDS011;74989;52.210;5.148;2023-12-22T09:56:39;15.32;;;2.83;;
81679;SDS011;74989;52.210;5.148;2023-12-22T09:59:09;13.18;;;3.00;;
81679;SDS011;74989;52.210;5.148;2023-12-22T10:01:38;19.92;;;3.40;;
81679;SDS011;74989;52.210;5.148;2023-12-22T10:04:10;14.88;;;3.50;;
81679;SDS011;74989;52.210;5.148;2023-12-22T10:06:36;20.57;;;2.80;;
81679;SDS011;74989;52.210;5.148;2023-12-22T10:09:03;18.25;;;3.22;;
81679;SDS011;74989;52.210;5.148;2023-12-22T10:11:32;20.58;;;3.25;;
81679;SDS011;74989;52.210;5.148;2023-12-22T10:14:00;6.57;;;2.00;;
81679;SDS011;74989;52.210;5.148;2023-12-22T10:16:28;16.23;;;2.55;;
81679;SDS011;74989;52.210;5.148;2023-12-22T10:18:56;13.13;;;2.60;;
81679;SDS011;74989;52.210;5.148;2023-12-22T10:21:25;14.80;;;2.75;;
81679;SDS011;74989;52.210;5.148;2023-12-22T10:23:52;18.33;;;3.08;;
81679;SDS011;74989;52.210;5.148;2023-12-22T10:26:19;15.75;;;2.65;;
81679;SDS011;74989;52.210;5.148;2023-12-22T10:28:46;12.60;;;2.97;;
81679;SDS011;74989;52.210;5.148;2023-12-22T10:31:14;13.50;;;2.70;;
81679;SDS011;74989;52.210;5.148;2023-12-22T10:33:40;13.90;;;2.20;;
81679;SDS011;74989;52.210;5.148;2023-12-22T10:36:09;13.10;;;2.20;;
81679;SDS011;74989;52.210;5.148;2023-12-22T10:38:37;16.52;;;2.90;;
81679;SDS011;74989;52.210;5.148;2023-12-22T10:41:05;15.52;;;2.58;;
81679;SDS011;74989;52.210;5.148;2023-12-22T10:43:36;19.10;;;2.30;;
81679;SDS011;74989;52.210;5.148;2023-12-22T10:46:04;14.18;;;2.67;;
81679;SDS011;74989;52.210;5.148;2023-12-22T10:48:30;14.85;;;2.58;;
81679;SDS011;74989;52.210;5.148;2023-12-22T10:50:57;14.23;;;2.45;;
81679;SDS011;74989;52.210;5.148;2023-12-22T10:53:24;18.25;;;2.80;;
81679;SDS011;74989;52.210;5.148;2023-12-22T10:55:52;13.50;;;2.67;;
81679;SDS011;74989;52.210;5.148;2023-12-22T10:58:19;12.77;;;2.45;;
81679;SDS011;74989;52.210;5.148;2023-12-22T11:00:46;14.32;;;2.33;;
81679;SDS011;74989;52.210;5.148;2023-12-22T11:03:17;16.80;;;2.95;;
81679;SDS011;74989;52.210;5.148;2023-12-22T11:05:44;18.48;;;3.22;;
81679;SDS011;74989;52.210;5.148;2023-12-22T11:08:12;13.50;;;2.53;;
81679;SDS011;74989;52.210;5.148;2023-12-22T11:10:41;11.40;;;2.40;;
81679;SDS011;74989;52.210;5.148;2023-12-22T11:13:11;11.82;;;2.40;;
81679;SDS011;74989;52.210;5.148;2023-12-22T11:15:39;10.23;;;2.30;;
81679;SDS011;74989;52.210;5.148;2023-12-22T11:18:06;16.08;;;3.00;;
81679;SDS011;74989;52.210;5.148;2023-12-22T11:20:34;18.47;;;2.77;;
81679;SDS011;74989;52.210;5.148;2023-12-22T11:23:02;15.10;;;2.88;;
81679;SDS011;74989;52.210;5.148;2023-12-22T11:25:30;19.67;;;2.67;;
81679;SDS011;74989;52.210;5.148;2023-12-22T11:27:58;18.05;;;2.90;;
81679;SDS011;74989;52.210;5.148;2023-12-22T11:30:27;13.45;;;2.67;;
81679;SDS011;74989;52.210;5.148;2023-12-22T11:32:55;13.63;;;2.17;;
81679;SDS011;74989;52.210;5.148;2023-12-22T11:35:23;14.27;;;2.55;;
81679;SDS011;74989;52.210;5.148;2023-12-22T11:37:50;8.50;;;2.10;;
81679;SDS011;74989;52.210;5.148;2023-12-22T11:40:18;13.02;;;2.22;;
81679;SDS011;74989;52.210;5.148;2023-12-22T11:42:46;17.98;;;2.75;;
81679;SDS011;74989;52.210;5.148;2023-12-22T11:45:15;14.70;;;2.63;;
81679;SDS011;74989;52.210;5.148;2023-12-22T11:47:45;14.57;;;2.78;;
81679;SDS011;74989;52.210;5.148;2023-12-22T11:50:14;14.50;;;4.10;;
81679;SDS011;74989;52.210;5.148;2023-12-22T11:52:54;13.70;;;2.55;;
81679;SDS011;74989;52.210;5.148;2023-12-22T12:01:02;15.55;;;3.10;;
81679;SDS011;74989;52.210;5.148;2023-12-22T12:03:32;18.33;;;2.72;;
81679;SDS011;74989;52.210;5.148;2023-12-22T12:08:41;12.18;;;2.15;;
81679;SDS011;74989;52.210;5.148;2023-12-22T12:11:08;12.63;;;3.30;;
81679;SDS011;74989;52.210;5.148;2023-12-22T12:13:35;14.30;;;2.47;;
81679;SDS011;74989;52.210;5.148;2023-12-22T12:16:07;12.30;;;1.90;;
81679;SDS011;74989;52.210;5.148;2023-12-22T12:18:35;12.77;;;2.47;;
81679;SDS011;74989;52.210;5.148;2023-12-22T12:21:02;12.75;;;2.15;;
81679;SDS011;74989;52.210;5.148;2023-12-22T12:23:31;12.40;;;1.93;;
81679;SDS011;74989;52.210;5.148;2023-12-22T12:25:58;17.73;;;2.47;;
81679;SDS011;74989;52.210;5.148;2023-12-22T12:28:25;15.07;;;2.42;;
81679;SDS011;74989;52.210;5.148;2023-12-22T12:30:57;14.68;;;2.33;;
81679;SDS011;74989;52.210;5.148;2023-12-22T12:33:25;17.50;;;2.38;;
81679;SDS011;74989;52.210;5.148;2023-12-22T12:35:53;13.67;;;2.57;;
81679;SDS011;74989;52.210;5.148;2023-12-22T12:38:23;5.20;;;1.50;;
81679;SDS011;74989;52.210;5.148;2023-12-22T12:41:03;17.75;;;2.40;;
81679;SDS011;74989;52.210;5.148;2023-12-22T12:43:30;16.30;;;2.50;;
81679;SDS011;74989;52.210;5.148;2023-12-22T12:46:02;12.90;;;2.33;;
81679;SDS011;74989;52.210;5.148;2023-12-22T12:48:29;14.20;;;2.77;;
81679;SDS011;74989;52.210;5.148;2023-12-22T12:51:01;15.43;;;2.60;;
81679;SDS011;74989;52.210;5.148;2023-12-22T12:53:30;11.48;;;2.80;;
81679;SDS011;74989;52.210;5.148;2023-12-22T12:55:58;12.75;;;2.20;;
81679;SDS011;74989;52.210;5.148;2023-12-22T12:58:27;17.65;;;2.35;;
81679;SDS011;74989;52.210;5.148;2023-12-22T13:01:04;14.03;;;2.37;;
81679;SDS011;74989;52.210;5.148;2023-12-22T13:03:32;16.33;;;2.20;;
81679;SDS011;74989;52.210;5.148;2023-12-22T13:06:07;12.27;;;2.47;;
81679;SDS011;74989;52.210;5.148;2023-12-22T13:08:34;13.65;;;2.58;;
81679;SDS011;74989;52.210;5.148;2023-12-22T13:11:01;14.23;;;2.38;;
81679;SDS011;74989;52.210;5.148;2023-12-22T13:13:28;16.47;;;2.80;;
81679;SDS011;74989;52.210;5.148;2023-12-22T13:15:55;16.30;;;2.40;;
81679;SDS011;74989;52.210;5.148;2023-12-22T13:18:21;14.07;;;2.33;;
81679;SDS011;74989;52.210;5.148;2023-12-22T13:20:48;12.27;;;2.30;;
81679;SDS011;74989;52.210;5.148;2023-12-22T13:23:18;14.50;;;2.03;;
81679;SDS011;74989;52.210;5.148;2023-12-22T13:25:45;10.17;;;1.73;;
81679;SDS011;74989;52.210;5.148;2023-12-22T13:28:11;10.95;;;1.48;;
81679;SDS011;74989;52.210;5.148;2023-12-22T13:30:38;14.48;;;3.53;;
81679;SDS011;74989;52.210;5.148;2023-12-22T13:33:06;12.60;;;2.10;;
81679;SDS011;74989;52.210;5.148;2023-12-22T13:35:33;14.90;;;2.13;;
81679;SDS011;74989;52.210;5.148;2023-12-22T13:38:01;11.40;;;2.00;;
81679;SDS011;74989;52.210;5.148;2023-12-22T13:40:30;12.57;;;2.00;;
81679;SDS011;74989;52.210;5.148;2023-12-22T13:42:57;11.38;;;2.40;;
81679;SDS011;74989;52.210;5.148;2023-12-22T13:45:24;13.70;;;2.20;;
81679;SDS011;74989;52.210;5.148;2023-12-22T13:47:51;13.68;;;2.28;;
81679;SDS011;74989;52.210;5.148;2023-12-22T13:50:18;14.43;;;2.40;;
81679;SDS011;74989;52.210;5.148;2023-12-22T13:52:48;10.73;;;2.20;;
81679;SDS011;74989;52.210;5.148;2023-12-22T13:55:16;10.10;;;2.58;;
81679;SDS011;74989;52.210;5.148;2023-12-22T13:57:45;11.82;;;2.10;;
81679;SDS011;74989;52.210;5.148;2023-12-22T14:00:27;19.77;;;2.65;;
81679;SDS011;74989;52.210;5.148;2023-12-22T14:02:55;15.20;;;2.47;;
81679;SDS011;74989;52.210;5.148;2023-12-22T14:05:22;13.25;;;2.25;;
81679;SDS011;74989;52.210;5.148;2023-12-22T14:07:48;17.17;;;3.13;;
81679;SDS011;74989;52.210;5.148;2023-12-22T14:10:15;16.27;;;2.72;;
81679;SDS011;74989;52.210;5.148;2023-12-22T14:12:42;16.65;;;2.72;;
81679;SDS011;74989;52.210;5.148;2023-12-22T14:15:10;17.33;;;2.73;;
81679;SDS011;74989;52.210;5.148;2023-12-22T14:17:38;16.88;;;2.70;;
81679;SDS011;74989;52.210;5.148;2023-12-22T14:20:07;16.73;;;2.70;;
81679;SDS011;74989;52.210;5.148;2023-12-22T14:22:34;13.00;;;2.22;;
81679;SDS011;74989;52.210;5.148;2023-12-22T14:25:02;20.73;;;2.92;;
81679;SDS011;74989;52.210;5.148;2023-12-22T14:27:29;20.60;;;2.60;;
81679;SDS011;74989;52.210;5.148;2023-12-22T14:29:55;12.75;;;2.15;;
81679;SDS011;74989;52.210;5.148;2023-12-22T14:32:23;14.00;;;2.40;;
81679;SDS011;74989;52.210;5.148;2023-12-22T14:34:50;16.27;;;2.83;;
81679;SDS011;74989;52.210;5.148;2023-12-22T14:37:17;14.00;;;2.65;;
81679;SDS011;74989;52.210;5.148;2023-12-22T14:39:44;18.00;;;2.83;;
81679;SDS011;74989;52.210;5.148;2023-12-22T14:42:11;15.80;;;2.78;;
81679;SDS011;74989;52.210;5.148;2023-12-22T14:44:37;18.25;;;3.33;;
81679;SDS011;74989;52.210;5.148;2023-12-22T14:47:04;15.70;;;2.50;;
81679;SDS011;74989;52.210;5.148;2023-12-22T14:49:32;21.23;;;3.50;;